This is the latest recevied weather packets stored in our database for station/object OK2ZI. If no packets are shown the sender has not sent any weather packets the latest 10 day(s).
| Time | Temp. | Humidity | Pressure | Rain* | Wind** | Luminosity | Snow |
|---|---|---|---|---|---|---|---|
| 1777377847 | 15.56° C | 32% | 1017 hPa | 0 mm | - | - | - |
| 1777377487 | 17.22° C | 30% | 1018 hPa | 0 mm | - | - | - |
| 1777377367 | 16.67° C | 30% | 1018 hPa | 0 mm | - | - | - |
| 1777377247 | 17.22° C | 31% | 1017 hPa | 0 mm | - | - | - |
| 1777376412 | 18.33° C | 27% | 1018 hPa | 0 mm | - | - | - |
| 1777374367 | 16.11° C | 31% | 1018 hPa | 0 mm | - | - | - |
| 1777373166 | 15.56° C | 33% | 1018 hPa | 0 mm | - | - | - |
| 1777373047 | 15.56° C | 30% | 1018 hPa | 0 mm | - | - | - |
| 1777372447 | 15.56° C | 31% | 1018 hPa | 0 mm | - | - | - |
| 1777372087 | 15° C | 34% | 1018 hPa | 0 mm | - | - | - |
| 1777371847 | 15.56° C | 33% | 1018 hPa | 0 mm | - | - | - |
| 1777369447 | 15.56° C | 31% | 1018 hPa | 0 mm | - | - | - |
| 1777367527 | 15° C | 32% | 1018 hPa | 0 mm | - | - | - |
| 1777367167 | 14.44° C | 33% | 1018 hPa | 0 mm | - | - | - |
| 1777365846 | 15° C | 30% | 1018 hPa | 0 mm | - | - | - |
| 1777364526 | 15° C | 30% | 1018 hPa | 0 mm | - | - | - |
| 1777363688 | 15° C | 30% | 1018 hPa | 0 mm | - | - | - |
| 1777362967 | 14.44° C | 32% | 1018 hPa | 0 mm | - | - | - |
| 1777362845 | 13.89° C | 32% | 1018 hPa | 0 mm | - | - | - |
| 1777362728 | 13.89° C | 32% | 1018 hPa | 0 mm | - | - | - |
| 1777362367 | 13.33° C | 34% | 1018 hPa | 0 mm | - | - | - |
| 1777360568 | 11.67° C | 40% | 1018 hPa | 0 mm | - | - | - |
| 1777359366 | 10.56° C | 44% | 1018 hPa | 0 mm | - | - | - |
| 1777359126 | 10° C | 44% | 1018 hPa | 0 mm | - | - | - |
| 1777357447 | 9.44° C | 49% | 1018 hPa | 0 mm | - | - | - |
* Rain latest hour (hover to see other rain measurements)
** Current wind speed in m/s (hover to see current wind gust speed)